Espace membre
Imprimable
Challenges > Delhalle - Dinant, 25/08/2013, BEL - La Descente de la Lesse
Liste des rapports > Lesse'13 - Classement
Recherche: Page: [1]
73 Entrées
 
Les réclamations ne sont plus acceptées, les résultats sont considérés comme définitifs.
RangNrNomAgeIOCLigueEquipeRéelTempsTkmMoy.ScrLocalité
1.2015FBIHAIN Amélie24BELARCH55:3655:364:15 14.1417NATOYE
2.2091FDROFIAK Sophie23BELCABW59:5959:594:35 13.1134THIMÉON
3.2243FROMEDENNE Anne34BELARCH1:01:411:01:414:43 12.7442CINEY
4.2083FDESMET Kim35BELROBA1:02:101:02:104:45 12.6445AARSCHOT
5.2387FCHELIN Marie24FRAGAG GEMBLOUX1:03:121:03:124:50 12.4454
6.1318FMEUR Elisabeth31BELCNP PONTARLIER1:03:281:03:284:51 12.3957MALBUISSON
7.2391FFLAMION Astrid35BEL1:03:551:03:554:53 12.3058
8.2384FDARDENNE Murielle35BELSPTWAVRE1:05:161:05:164:59 12.0463
9.2326FBAEKEN Emmanuelle35BELARCH1:06:081:06:085:03 11.8966
10.2232FREISCH Désirée31LUX1:07:451:07:455:11 11.6075BERTRANGE
11.2021FBODAUX Stéphanie30BEL1:08:111:08:115:13 11.5381DINANT
12.2063FDE BONHOME Louise20BELARCHARCH CINEY1:09:031:09:035:17 11.3992DINANT
13.2355FCOENEN Chantal39BELTTW1:10:001:10:005:21 11.23100
14.2411FFINFE Valérie36BELBEAUX DINANTAIS1:10:211:10:215:23 11.17103DRÉHANCE
15.2186FMATHIEU Sophie33BELCAP BEAURAING1:11:271:11:275:28 11.00115WIESME
16.2058FDASSY Melany28BELJE COURS À INCOURT1:12:501:12:505:34 10.79133JODOIGNE
17.2059FDE BAETS Céline22BELRCAS1:13:011:13:015:35 10.76140BRUXELLES
18.2184FMARCHAL Valérie37BEL1:13:561:13:565:39 10.63151
19.2375FHEYDEN Colline20BEL1:13:561:13:565:39 10.63152
20.2199FMORRE Laurence38BEL1:15:071:15:075:45 10.46163DURNAL
21.2117FGENIN Kathleen34BEL1:17:001:17:005:53 10.21183
22.2133FGONTHIER Mélanie35BELCAP BEAURAING1:17:151:17:155:54 10.18188WIESME
23.2371FDE MOOR Sophie27BELJE COURS À INCOURT1:17:361:17:365:56 10.13190
24.2280FVANDEGHINSTE Marie-Amandine27BEL1:17:451:17:455:57 10.11195KAIN
25.2106FEVRARD Pauline32BEL1:18:111:18:115:59 10.06200CHEVETOGNE
26.2252FSHOSTAK Kateryna39UKR1:18:211:18:215:59 10.03203LIEGE
27.2056FDANDOY Marylène36BEL1:18:221:18:225:59 10.03204
28.2240FROELANDT Sofie30BELJC GRIMBERGEN1:18:281:18:286:00 10.02207
29.2178FLUISETTO Moïra29BEL1:18:461:18:466:01 9.98210HAVELANGE
30.2043FCHIRIAEFF Pauline24FRA1:18:521:18:526:02 9.97211GIVET
31.2316FVANSERMEIREN Elodie23BEL1:19:191:19:196:04 9.91216
32.2188FMATHOT Sandrine35BELARCH1:20:131:20:136:08 9.80228PURNODE
33.2118FGEORGES Valerie39BEL1:20:541:20:546:11 9.72234CHEVETOGNE
34.2081FDEROANNE Séverine26BELROCA1:21:471:21:476:15 9.61242LIÈGE
35.2235FRENAUT Ophélie22BELJCQ1:23:401:23:406:24 9.39252QUIÉVRAIN
36.2350FDEMEYER Catherine31BEL1:24:461:24:466:29 9.27259
37.2028FBRAIBANT Lindsay25BEL1:25:171:25:176:31 9.22266ANDENNE
38.2394FHENS Sarah39BELJCPMF1:25:231:25:236:32 9.21267
39.2352FBRISON Nathalie28BELRCN1:27:051:27:056:39 9.03277
40.2019FBODART Rehana39BEL1:27:191:27:196:40 9.00280
41.2295FVEDRINE Aude38FRA1:28:141:28:146:45 8.91286VIREUX MOLHAIN
42.2289FVANDENPLAS Marie20BEL1:28:171:28:176:45 8.90287FALMAGNE
43.2358FLAURANT Noémie20BEL1:28:171:28:176:45 8.90288LESSIVE
44.2285FVAN DEN BRANDE Stefanie25BELPURATOS - VITA PLUS1:28:301:28:306:46 8.88292HERZELE
45.2055FDANDOY Bénédicte34BEL1:28:501:28:506:47 8.85293WÉPION
46.2407FWESTERING Adeline27BEL1:28:541:28:546:48 8.84294
47.2259FSTEVENS Céline27BEL1:29:221:29:226:50 8.80299BRUXELLES
48.2005FBARBIER Mélanie27BEL1:29:291:29:296:50 8.78300BARONVILLE
49.2120FGERARD Valérie27FRA1:30:091:30:096:53 8.72305GIVET
50.2402FFLORIEUX Laura20BEL1:30:101:30:106:53 8.72306
51.2173FLEMAHIEU Caroline27BEL1:30:221:30:226:54 8.70307ETTERBEEK
52.2328FMARTIN Valerie38BEL1:30:281:30:286:55 8.69309
53.2052FCUVELIER Aurélie29BELSMAC1:30:541:30:546:57 8.65313NAMUR
54.2053FCUVELIER Nathalie27BELSMACTORTUES MESLINOISES1:30:541:30:546:57 8.65314NAMUR
55.2010FBEAUJEAN Colette30BEL1:31:321:31:327:00 8.59318
56.2200FMOUFFE Dorothée37BELSPTW1:32:071:32:077:02 8.53322LIMELETTE
57.2162FKHAWAJA Nadia31BEL1:32:141:32:147:03 8.52325BRUXELLES
58.2415FPETKOVIC Lepa32BEL1:32:261:32:267:04 8.50326LAEKEN
59.2313FLEONARD Alice20BEL1:32:451:32:457:05 8.48330
60.2214FPETKOVIC Elizabet32BEL1:32:461:32:467:05 8.47332BRUXELLES
61.2272FTUMERELLE Aurelie36BEL1:32:471:32:477:05 8.47333CINEY
62.2229FPROVOOST Catherine37BEL1:33:031:33:037:07 8.45336GILLY
63.2401FCALDERS Sandra39BELROBA1:33:231:33:237:08 8.42339
64.2127FGILLES Nancy39BELJC MONTAGNARD1:34:471:34:477:15 8.29344MONTIGNY-LE-TILLEUL
65.2341FFRANCOIS Beatrice39BEL1:38:291:38:297:32 7.98360
66.2030FBROSTEAUX Marie32BEL1:38:551:38:557:34 7.95364TEMPLOUX
67.2370FRHAINOTTE Virginie37BELBAURAING1:39:391:39:397:37 7.89365
68.2119FGERARD Alexandra31BEL1:40:121:40:127:39 7.84367DURNAL
69.2344FRIPAUD An37BEL1:42:531:42:537:52 7.64372
70.2139FGUSTIN Amandine20BELARCH1:45:081:45:088:02 7.48375DINANT
71.2067FDEFOSSÉ Sophie39BELARCH1:53:161:53:168:39 6.94379GESVES
72.2205FOLBRECHTS Laetitia35BEL1:58:101:58:109:02 6.65380CORROY-LE-GRAND
73.2017FBILLE Colette22BEL2:15:112:15:1110:20 5.81383GENVAL
DNF: abandon; DSQ: disqualifié; Vitesse en km/h
Page: [1]